sensor_id;sensor_type;location;lat;lon;timestamp;pressure;altitude;pressure_sealevel;temperature;humidity
42001;BME280;27689;48.390;10.856;2023-05-23T00:02:27;95828.13;;;17.40;86.11
42001;BME280;27689;48.390;10.856;2023-05-23T00:05:11;95823.00;;;17.39;85.59
42001;BME280;27689;48.390;10.856;2023-05-23T00:07:55;95827.47;;;17.32;85.86
42001;BME280;27689;48.390;10.856;2023-05-23T00:10:39;95830.88;;;17.25;86.27
42001;BME280;27689;48.390;10.856;2023-05-23T00:13:23;95836.25;;;17.32;86.48
42001;BME280;27689;48.390;10.856;2023-05-23T00:16:08;95826.28;;;17.34;85.95
42001;BME280;27689;48.390;10.856;2023-05-23T00:18:55;95840.47;;;17.26;86.92
42001;BME280;27689;48.390;10.856;2023-05-23T00:21:42;95833.53;;;17.25;87.17
42001;BME280;27689;48.390;10.856;2023-05-23T00:24:26;95827.81;;;17.22;87.19
42001;BME280;27689;48.390;10.856;2023-05-23T00:27:10;95833.09;;;17.15;87.05
42001;BME280;27689;48.390;10.856;2023-05-23T00:29:54;95832.72;;;17.25;87.26
42001;BME280;27689;48.390;10.856;2023-05-23T00:32:38;95824.41;;;17.28;86.93
42001;BME280;27689;48.390;10.856;2023-05-23T00:35:22;95830.44;;;17.15;87.22
42001;BME280;27689;48.390;10.856;2023-05-23T00:38:06;95831.88;;;17.18;87.09
42001;BME280;27689;48.390;10.856;2023-05-23T00:40:50;95834.47;;;17.11;87.61
42001;BME280;27689;48.390;10.856;2023-05-23T00:43:34;95826.59;;;17.24;87.91
42001;BME280;27689;48.390;10.856;2023-05-23T00:46:19;95825.59;;;17.25;87.38
42001;BME280;27689;48.390;10.856;2023-05-23T00:49:03;95830.06;;;17.18;87.47
42001;BME280;27689;48.390;10.856;2023-05-23T00:51:47;95830.63;;;17.14;87.90
42001;BME280;27689;48.390;10.856;2023-05-23T00:54:35;95824.69;;;17.05;88.80
42001;BME280;27689;48.390;10.856;2023-05-23T00:57:19;95839.13;;;17.03;89.45
42001;BME280;27689;48.390;10.856;2023-05-23T01:00:03;95826.63;;;16.97;89.25
42001;BME280;27689;48.390;10.856;2023-05-23T01:02:47;95835.97;;;16.92;90.34
42001;BME280;27689;48.390;10.856;2023-05-23T01:05:34;95830.88;;;16.91;90.01
42001;BME280;27689;48.390;10.856;2023-05-23T01:08:18;95836.41;;;16.68;92.52
42001;BME280;27689;48.390;10.856;2023-05-23T01:11:05;95840.69;;;16.69;91.37
42001;BME280;27689;48.390;10.856;2023-05-23T01:13:58;95833.81;;;16.75;91.48
42001;BME280;27689;48.390;10.856;2023-05-23T01:16:54;95836.97;;;16.64;92.62
42001;BME280;27689;48.390;10.856;2023-05-23T01:20:03;95843.91;;;16.65;93.04
42001;BME280;27689;48.390;10.856;2023-05-23T01:29:01;95848.94;;;16.60;93.40
42001;BME280;27689;48.390;10.856;2023-05-23T01:31:52;95845.16;;;16.69;94.26
42001;BME280;27689;48.390;10.856;2023-05-23T01:34:37;95839.59;;;16.64;94.11
42001;BME280;27689;48.390;10.856;2023-05-23T01:37:22;95850.00;;;16.65;94.50
42001;BME280;27689;48.390;10.856;2023-05-23T01:40:06;95848.00;;;16.67;94.62
42001;BME280;27689;48.390;10.856;2023-05-23T01:42:52;95840.16;;;16.59;94.00
42001;BME280;27689;48.390;10.856;2023-05-23T01:45:38;95840.16;;;16.59;94.68
42001;BME280;27689;48.390;10.856;2023-05-23T01:48:22;95854.22;;;16.60;95.23
42001;BME280;27689;48.390;10.856;2023-05-23T01:51:08;95853.31;;;16.52;95.55
42001;BME280;27689;48.390;10.856;2023-05-23T01:53:52;95848.59;;;16.48;95.73
42001;BME280;27689;48.390;10.856;2023-05-23T01:56:36;95851.13;;;16.56;96.88
42001;BME280;27689;48.390;10.856;2023-05-23T01:59:20;95844.28;;;16.62;96.93
42001;BME280;27689;48.390;10.856;2023-05-23T02:02:04;95857.59;;;16.53;97.07
42001;BME280;27689;48.390;10.856;2023-05-23T02:04:48;95843.06;;;16.43;98.34
42001;BME280;27689;48.390;10.856;2023-05-23T02:07:32;95851.56;;;16.38;98.75
42001;BME280;27689;48.390;10.856;2023-05-23T02:10:16;95847.47;;;16.36;99.43
42001;BME280;27689;48.390;10.856;2023-05-23T02:13:00;95844.44;;;16.39;99.57
42001;BME280;27689;48.390;10.856;2023-05-23T02:15:44;95848.94;;;16.38;99.50
42001;BME280;27689;48.390;10.856;2023-05-23T02:18:28;95846.72;;;16.42;100.00
42001;BME280;27689;48.390;10.856;2023-05-23T02:21:12;95850.31;;;16.34;100.00
42001;BME280;27689;48.390;10.856;2023-05-23T02:23:56;95843.59;;;16.32;100.00
42001;BME280;27689;48.390;10.856;2023-05-23T02:26:40;95848.81;;;16.25;100.00
42001;BME280;27689;48.390;10.856;2023-05-23T02:29:24;95857.38;;;16.27;100.00
42001;BME280;27689;48.390;10.856;2023-05-23T02:32:08;95854.09;;;16.25;100.00
42001;BME280;27689;48.390;10.856;2023-05-23T02:34:52;95843.88;;;16.22;100.00
42001;BME280;27689;48.390;10.856;2023-05-23T02:37:36;95859.25;;;16.12;100.00
42001;BME280;27689;48.390;10.856;2023-05-23T02:40:20;95864.53;;;16.12;99.96
42001;BME280;27689;48.390;10.856;2023-05-23T02:43:04;95863.06;;;16.09;100.00
42001;BME280;27689;48.390;10.856;2023-05-23T02:45:47;95872.44;;;16.12;100.00
42001;BME280;27689;48.390;10.856;2023-05-23T02:48:31;95875.97;;;15.98;100.00
42001;BME280;27689;48.390;10.856;2023-05-23T02:51:15;95874.81;;;15.85;100.00
42001;BME280;27689;48.390;10.856;2023-05-23T02:53:59;95876.22;;;15.88;100.00
42001;BME280;27689;48.390;10.856;2023-05-23T02:56:44;95876.03;;;15.90;100.00
42001;BME280;27689;48.390;10.856;2023-05-23T02:59:28;95877.69;;;15.91;100.00
42001;BME280;27689;48.390;10.856;2023-05-23T03:02:12;95875.22;;;15.89;100.00
42001;BME280;27689;48.390;10.856;2023-05-23T03:04:56;95880.91;;;15.86;100.00
42001;BME280;27689;48.390;10.856;2023-05-23T03:07:40;95882.63;;;15.79;100.00
42001;BME280;27689;48.390;10.856;2023-05-23T03:10:24;95875.53;;;15.79;100.00
42001;BME280;27689;48.390;10.856;2023-05-23T03:13:08;95874.00;;;15.70;100.00
42001;BME280;27689;48.390;10.856;2023-05-23T03:15:52;95880.94;;;15.71;100.00
42001;BME280;27689;48.390;10.856;2023-05-23T03:18:36;95875.00;;;15.69;100.00
42001;BME280;27689;48.390;10.856;2023-05-23T03:21:20;95873.00;;;15.71;100.00
42001;BME280;27689;48.390;10.856;2023-05-23T03:24:04;95867.91;;;15.70;100.00
42001;BME280;27689;48.390;10.856;2023-05-23T03:26:48;95870.53;;;15.70;100.00
42001;BME280;27689;48.390;10.856;2023-05-23T03:29:32;95871.63;;;15.61;100.00
42001;BME280;27689;48.390;10.856;2023-05-23T03:32:16;95869.16;;;15.59;100.00
42001;BME280;27689;48.390;10.856;2023-05-23T03:35:00;95870.63;;;15.62;100.00
42001;BME280;27689;48.390;10.856;2023-05-23T03:37:44;95868.59;;;15.49;100.00
42001;BME280;27689;48.390;10.856;2023-05-23T03:40:28;95874.53;;;15.51;100.00
42001;BME280;27689;48.390;10.856;2023-05-23T03:43:12;95877.00;;;15.52;100.00
42001;BME280;27689;48.390;10.856;2023-05-23T03:45:57;95888.28;;;15.46;100.00
42001;BME280;27689;48.390;10.856;2023-05-23T03:48:41;95887.38;;;15.39;100.00
42001;BME280;27689;48.390;10.856;2023-05-23T03:51:25;95886.28;;;15.48;100.00
42001;BME280;27689;48.390;10.856;2023-05-23T03:54:10;95894.94;;;15.42;100.00
42001;BME280;27689;48.390;10.856;2023-05-23T03:56:54;95890.72;;;15.48;100.00
42001;BME280;27689;48.390;10.856;2023-05-23T03:59:38;95902.09;;;15.48;100.00
42001;BME280;27689;48.390;10.856;2023-05-23T04:02:22;95895.38;;;15.46;100.00
42001;BME280;27689;48.390;10.856;2023-05-23T04:05:06;95893.47;;;15.40;100.00
42001;BME280;27689;48.390;10.856;2023-05-23T04:07:51;95898.94;;;15.38;100.00
42001;BME280;27689;48.390;10.856;2023-05-23T04:10:36;95895.13;;;15.41;100.00
42001;BME280;27689;48.390;10.856;2023-05-23T04:13:20;95888.84;;;15.42;100.00
42001;BME280;27689;48.390;10.856;2023-05-23T04:16:05;95893.72;;;15.45;100.00
42001;BME280;27689;48.390;10.856;2023-05-23T04:18:49;95893.72;;;15.45;100.00
42001;BME280;27689;48.390;10.856;2023-05-23T04:21:34;95895.56;;;15.59;100.00
42001;BME280;27689;48.390;10.856;2023-05-23T04:24:19;95892.66;;;15.54;100.00
42001;BME280;27689;48.390;10.856;2023-05-23T04:27:03;95900.94;;;15.51;100.00
42001;BME280;27689;48.390;10.856;2023-05-23T04:29:47;95903.94;;;15.48;100.00
42001;BME280;27689;48.390;10.856;2023-05-23T04:32:31;95905.56;;;15.49;100.00
42001;BME280;27689;48.390;10.856;2023-05-23T04:35:15;95909.31;;;15.55;100.00
42001;BME280;27689;48.390;10.856;2023-05-23T04:37:59;95901.06;;;15.58;100.00
42001;BME280;27689;48.390;10.856;2023-05-23T04:40:44;95911.06;;;15.62;100.00
42001;BME280;27689;48.390;10.856;2023-05-23T04:43:28;95921.38;;;15.57;100.00
42001;BME280;27689;48.390;10.856;2023-05-23T04:46:12;95923.44;;;15.76;100.00
42001;BME280;27689;48.390;10.856;2023-05-23T04:48:56;95922.72;;;15.82;100.00
42001;BME280;27689;48.390;10.856;2023-05-23T04:51:42;95927.19;;;15.82;100.00
42001;BME280;27689;48.390;10.856;2023-05-23T04:54:26;95931.09;;;15.86;100.00
42001;BME280;27689;48.390;10.856;2023-05-23T04:57:10;95933.63;;;15.79;100.00
42001;BME280;27689;48.390;10.856;2023-05-23T04:59:55;95931.16;;;15.93;100.00
42001;BME280;27689;48.390;10.856;2023-05-23T05:02:40;95938.56;;;15.97;100.00
42001;BME280;27689;48.390;10.856;2023-05-23T05:05:23;95942.66;;;16.00;100.00
42001;BME280;27689;48.390;10.856;2023-05-23T05:08:07;95937.97;;;16.16;100.00
42001;BME280;27689;48.390;10.856;2023-05-23T05:10:53;95944.00;;;16.10;100.00
42001;BME280;27689;48.390;10.856;2023-05-23T05:13:38;95941.91;;;16.06;100.00
42001;BME280;27689;48.390;10.856;2023-05-23T05:16:22;95946.50;;;16.18;100.00
42001;BME280;27689;48.390;10.856;2023-05-23T05:19:06;95944.09;;;16.17;100.00
42001;BME280;27689;48.390;10.856;2023-05-23T05:21:50;95958.94;;;16.03;100.00
42001;BME280;27689;48.390;10.856;2023-05-23T05:24:35;95957.13;;;16.04;100.00
42001;BME280;27689;48.390;10.856;2023-05-23T05:27:19;95957.13;;;16.04;100.00
42001;BME280;27689;48.390;10.856;2023-05-23T05:30:07;95958.66;;;16.13;100.00
42001;BME280;27689;48.390;10.856;2023-05-23T05:32:51;95963.84;;;16.06;100.00
42001;BME280;27689;48.390;10.856;2023-05-23T05:35:35;95964.94;;;16.12;100.00
42001;BME280;27689;48.390;10.856;2023-05-23T05:38:20;95969.13;;;16.21;100.00
42001;BME280;27689;48.390;10.856;2023-05-23T05:41:05;95952.38;;;16.14;100.00
42001;BME280;27689;48.390;10.856;2023-05-23T05:43:49;95963.47;;;16.24;100.00
42001;BME280;27689;48.390;10.856;2023-05-23T05:46:33;95964.56;;;16.30;100.00
42001;BME280;27689;48.390;10.856;2023-05-23T05:49:17;95970.38;;;16.40;100.00
42001;BME280;27689;48.390;10.856;2023-05-23T05:52:01;95966.50;;;16.57;100.00
42001;BME280;27689;48.390;10.856;2023-05-23T05:54:45;95967.75;;;16.61;100.00
42001;BME280;27689;48.390;10.856;2023-05-23T05:57:28;95966.03;;;16.68;100.00
42001;BME280;27689;48.390;10.856;2023-05-23T06:00:13;95975.69;;;16.76;100.00
42001;BME280;27689;48.390;10.856;2023-05-23T06:02:57;95972.25;;;16.82;100.00
42001;BME280;27689;48.390;10.856;2023-05-23T06:05:41;95978.75;;;17.01;100.00
42001;BME280;27689;48.390;10.856;2023-05-23T06:08:25;95974.78;;;17.11;100.00
42001;BME280;27689;48.390;10.856;2023-05-23T06:11:09;95980.31;;;17.16;100.00
42001;BME280;27689;48.390;10.856;2023-05-23T06:13:54;95993.50;;;17.10;100.00
42001;BME280;27689;48.390;10.856;2023-05-23T06:16:38;95984.50;;;17.04;100.00
42001;BME280;27689;48.390;10.856;2023-05-23T06:19:22;95989.97;;;17.03;100.00
42001;BME280;27689;48.390;10.856;2023-05-23T06:22:06;95992.00;;;17.01;100.00
42001;BME280;27689;48.390;10.856;2023-05-23T06:24:50;95994.94;;;17.12;100.00
42001;BME280;27689;48.390;10.856;2023-05-23T06:27:34;95989.28;;;17.15;100.00
42001;BME280;27689;48.390;10.856;2023-05-23T06:30:18;95999.91;;;17.22;100.00
42001;BME280;27689;48.390;10.856;2023-05-23T06:33:02;96004.81;;;17.25;100.00
42001;BME280;27689;48.390;10.856;2023-05-23T06:35:46;95999.47;;;17.18;100.00
42001;BME280;27689;48.390;10.856;2023-05-23T06:38:31;96001.78;;;17.28;100.00
42001;BME280;27689;48.390;10.856;2023-05-23T06:41:18;96011.72;;;17.19;100.00
42001;BME280;27689;48.390;10.856;2023-05-23T06:44:02;96003.44;;;17.29;100.00
42001;BME280;27689;48.390;10.856;2023-05-23T06:46:47;96006.16;;;17.36;100.00
42001;BME280;27689;48.390;10.856;2023-05-23T06:49:31;96009.72;;;17.49;100.00
42001;BME280;27689;48.390;10.856;2023-05-23T06:52:15;96004.25;;;17.51;100.00
42001;BME280;27689;48.390;10.856;2023-05-23T06:54:59;96011.41;;;17.57;100.00
42001;BME280;27689;48.390;10.856;2023-05-23T06:57:43;96008.13;;;17.55;100.00
42001;BME280;27689;48.390;10.856;2023-05-23T07:00:28;96009.00;;;17.62;100.00
42001;BME280;27689;48.390;10.856;2023-05-23T07:03:12;96010.19;;;17.59;100.00
42001;BME280;27689;48.390;10.856;2023-05-23T07:05:56;96008.38;;;17.60;100.00
42001;BME280;27689;48.390;10.856;2023-05-23T07:08:40;96009.56;;;17.57;100.00
42001;BME280;27689;48.390;10.856;2023-05-23T07:11:24;96009.47;;;17.66;100.00
42001;BME280;27689;48.390;10.856;2023-05-23T07:14:08;96007.03;;;17.71;100.00
42001;BME280;27689;48.390;10.856;2023-05-23T07:16:52;96008.69;;;17.72;100.00
42001;BME280;27689;48.390;10.856;2023-05-23T07:19:36;96005.47;;;17.76;100.00
42001;BME280;27689;48.390;10.856;2023-05-23T07:22:20;96002.84;;;17.83;100.00
42001;BME280;27689;48.390;10.856;2023-05-23T07:25:04;96004.72;;;17.89;98.20
42001;BME280;27689;48.390;10.856;2023-05-23T07:27:48;96006.78;;;17.93;98.87
42001;BME280;27689;48.390;10.856;2023-05-23T07:30:32;96007.81;;;17.92;99.66
42001;BME280;27689;48.390;10.856;2023-05-23T07:33:16;95993.69;;;17.85;100.00
42001;BME280;27689;48.390;10.856;2023-05-23T07:36:00;95994.69;;;17.84;100.00
42001;BME280;27689;48.390;10.856;2023-05-23T07:38:44;96010.47;;;17.92;100.00
42001;BME280;27689;48.390;10.856;2023-05-23T07:41:28;96007.63;;;18.01;100.00
42001;BME280;27689;48.390;10.856;2023-05-23T07:44:12;96010.16;;;18.09;96.34
42001;BME280;27689;48.390;10.856;2023-05-23T07:46:56;96017.47;;;18.07;96.81
42001;BME280;27689;48.390;10.856;2023-05-23T07:49:40;96018.91;;;18.09;97.26
42001;BME280;27689;48.390;10.856;2023-05-23T07:52:24;96025.25;;;18.15;97.36
42001;BME280;27689;48.390;10.856;2023-05-23T07:55:09;96023.41;;;18.09;97.32
42001;BME280;27689;48.390;10.856;2023-05-23T07:57:53;96010.16;;;18.15;97.70
42001;BME280;27689;48.390;10.856;2023-05-23T08:00:39;96013.88;;;18.27;96.87
42001;BME280;27689;48.390;10.856;2023-05-23T08:03:24;96013.53;;;18.37;97.42
42001;BME280;27689;48.390;10.856;2023-05-23T08:06:08;96020.72;;;18.50;96.55
42001;BME280;27689;48.390;10.856;2023-05-23T08:08:52;96025.69;;;18.59;96.15
42001;BME280;27689;48.390;10.856;2023-05-23T08:11:36;96023.00;;;18.53;95.54
42001;BME280;27689;48.390;10.856;2023-05-23T08:14:20;96018.28;;;18.48;94.10
42001;BME280;27689;48.390;10.856;2023-05-23T08:17:05;96022.38;;;18.57;93.09
42001;BME280;27689;48.390;10.856;2023-05-23T08:19:49;96022.25;;;18.65;92.46
42001;BME280;27689;48.390;10.856;2023-05-23T08:22:33;96020.97;;;18.55;91.33
42001;BME280;27689;48.390;10.856;2023-05-23T08:25:17;96025.72;;;18.66;91.59
42001;BME280;27689;48.390;10.856;2023-05-23T08:28:01;96035.34;;;18.74;90.52
42001;BME280;27689;48.390;10.856;2023-05-23T08:30:45;96020.63;;;18.64;90.10
42001;BME280;27689;48.390;10.856;2023-05-23T08:33:29;96028.56;;;18.64;91.16
42001;BME280;27689;48.390;10.856;2023-05-23T08:36:13;96033.88;;;18.71;91.12
42001;BME280;27689;48.390;10.856;2023-05-23T08:38:57;96033.72;;;18.79;91.73
42001;BME280;27689;48.390;10.856;2023-05-23T08:41:41;96041.50;;;18.81;90.96
42001;BME280;27689;48.390;10.856;2023-05-23T08:44:25;96042.31;;;18.81;91.43
42001;BME280;27689;48.390;10.856;2023-05-23T08:47:09;96046.81;;;18.81;90.27
42001;BME280;27689;48.390;10.856;2023-05-23T08:49:55;96047.19;;;18.78;91.45
42001;BME280;27689;48.390;10.856;2023-05-23T08:52:47;96044.97;;;18.81;90.65
42001;BME280;27689;48.390;10.856;2023-05-23T08:55:33;96046.13;;;18.65;90.99
42001;BME280;27689;48.390;10.856;2023-05-23T08:58:17;96054.53;;;18.69;91.63
42001;BME280;27689;48.390;10.856;2023-05-23T09:01:05;96058.31;;;18.53;92.79
42001;BME280;27689;48.390;10.856;2023-05-23T09:03:50;96055.41;;;18.48;93.76
42001;BME280;27689;48.390;10.856;2023-05-23T09:06:34;96062.03;;;18.59;91.99
42001;BME280;27689;48.390;10.856;2023-05-23T09:09:19;96062.75;;;18.46;92.76
42001;BME280;27689;48.390;10.856;2023-05-23T09:12:03;96057.69;;;18.51;91.43
42001;BME280;27689;48.390;10.856;2023-05-23T09:14:47;96055.81;;;18.45;92.30
42001;BME280;27689;48.390;10.856;2023-05-23T09:17:32;96066.06;;;18.55;91.96
42001;BME280;27689;48.390;10.856;2023-05-23T09:20:19;96068.78;;;18.61;91.60
42001;BME280;27689;48.390;10.856;2023-05-23T09:23:04;96060.22;;;18.73;92.07
42001;BME280;27689;48.390;10.856;2023-05-23T09:25:48;96059.69;;;18.90;90.29
42001;BME280;27689;48.390;10.856;2023-05-23T09:28:32;96058.94;;;19.10;87.08
42001;BME280;27689;48.390;10.856;2023-05-23T09:31:17;96052.03;;;19.28;87.76
42001;BME280;27689;48.390;10.856;2023-05-23T09:34:01;96041.84;;;19.52;86.48
42001;BME280;27689;48.390;10.856;2023-05-23T09:36:45;96050.81;;;19.77;83.89
42001;BME280;27689;48.390;10.856;2023-05-23T09:39:29;96043.88;;;19.96;83.17
42001;BME280;27689;48.390;10.856;2023-05-23T09:42:19;96041.59;;;20.13;80.13
42001;BME280;27689;48.390;10.856;2023-05-23T09:45:05;96044.25;;;20.13;81.61
42001;BME280;27689;48.390;10.856;2023-05-23T09:47:50;96033.19;;;20.16;78.91
42001;BME280;27689;48.390;10.856;2023-05-23T09:50:34;96048.28;;;20.35;81.55
42001;BME280;27689;48.390;10.856;2023-05-23T09:53:19;96040.72;;;20.38;79.78
42001;BME280;27689;48.390;10.856;2023-05-23T09:56:06;96044.81;;;20.41;79.50
42001;BME280;27689;48.390;10.856;2023-05-23T09:58:55;96044.22;;;20.32;79.82
42001;BME280;27689;48.390;10.856;2023-05-23T10:01:42;96027.66;;;20.11;81.35
42001;BME280;27689;48.390;10.856;2023-05-23T10:04:30;96040.13;;;20.30;81.20
42001;BME280;27689;48.390;10.856;2023-05-23T10:07:19;96035.34;;;20.58;79.55
42001;BME280;27689;48.390;10.856;2023-05-23T10:10:07;96035.78;;;20.93;77.12
42001;BME280;27689;48.390;10.856;2023-05-23T10:12:54;96033.50;;;20.97;75.48
42001;BME280;27689;48.390;10.856;2023-05-23T10:15:41;96030.41;;;21.00;75.31
42001;BME280;27689;48.390;10.856;2023-05-23T10:18:28;96028.66;;;20.87;73.67
42001;BME280;27689;48.390;10.856;2023-05-23T10:21:18;96039.00;;;21.02;75.67
42001;BME280;27689;48.390;10.856;2023-05-23T10:24:04;96036.84;;;20.86;74.12
42001;BME280;27689;48.390;10.856;2023-05-23T10:26:48;96032.63;;;20.71;76.32
42001;BME280;27689;48.390;10.856;2023-05-23T10:29:32;96023.06;;;20.95;76.39
42001;BME280;27689;48.390;10.856;2023-05-23T10:32:19;96016.81;;;21.21;73.72
42001;BME280;27689;48.390;10.856;2023-05-23T10:35:14;96012.91;;;21.49;74.01
42001;BME280;27689;48.390;10.856;2023-05-23T10:38:25;96011.50;;;21.46;72.12
42001;BME280;27689;48.390;10.856;2023-05-23T10:41:17;96006.06;;;21.34;71.35
42001;BME280;27689;48.390;10.856;2023-05-23T10:44:17;96011.91;;;21.43;70.64
42001;BME280;27689;48.390;10.856;2023-05-23T10:47:04;96010.38;;;21.54;70.95
42001;BME280;27689;48.390;10.856;2023-05-23T10:49:51;96007.34;;;21.75;73.79
42001;BME280;27689;48.390;10.856;2023-05-23T10:52:41;96018.75;;;21.82;68.39
42001;BME280;27689;48.390;10.856;2023-05-23T10:55:25;96016.81;;;21.71;67.75
42001;BME280;27689;48.390;10.856;2023-05-23T10:58:15;96011.19;;;21.54;68.27
42001;BME280;27689;48.390;10.856;2023-05-23T11:01:03;96007.72;;;21.78;70.01
42001;BME280;27689;48.390;10.856;2023-05-23T11:06:40;96021.56;;;22.12;67.53
42001;BME280;27689;48.390;10.856;2023-05-23T11:09:25;96018.66;;;21.95;66.06
42001;BME280;27689;48.390;10.856;2023-05-23T11:12:09;96021.66;;;21.80;67.06
42001;BME280;27689;48.390;10.856;2023-05-23T11:14:53;96020.34;;;21.90;69.31
42001;BME280;27689;48.390;10.856;2023-05-23T11:17:49;96025.88;;;21.88;67.96
42001;BME280;27689;48.390;10.856;2023-05-23T11:20:36;96022.91;;;21.78;69.05
42001;BME280;27689;48.390;10.856;2023-05-23T11:23:21;96020.63;;;22.06;66.58
42001;BME280;27689;48.390;10.856;2023-05-23T11:26:05;96019.66;;;22.19;64.22
42001;BME280;27689;48.390;10.856;2023-05-23T11:29:09;96013.06;;;22.22;66.42
42001;BME280;27689;48.390;10.856;2023-05-23T11:31:55;96017.34;;;22.04;67.69
42001;BME280;27689;48.390;10.856;2023-05-23T11:34:40;96008.56;;;21.97;68.36
42001;BME280;27689;48.390;10.856;2023-05-23T11:37:24;96016.00;;;22.13;71.79
42001;BME280;27689;48.390;10.856;2023-05-23T11:43:10;96005.13;;;22.70;64.93
42001;BME280;27689;48.390;10.856;2023-05-23T11:45:54;96007.59;;;22.53;63.44
42001;BME280;27689;48.390;10.856;2023-05-23T11:48:43;95997.28;;;22.38;64.11
42001;BME280;27689;48.390;10.856;2023-05-23T11:51:27;96001.50;;;22.09;63.08
42001;BME280;27689;48.390;10.856;2023-05-23T11:54:11;95996.16;;;21.85;63.23
42001;BME280;27689;48.390;10.856;2023-05-23T11:56:56;96003.56;;;21.82;63.54
42001;BME280;27689;48.390;10.856;2023-05-23T11:59:40;95995.84;;;21.74;64.35
42001;BME280;27689;48.390;10.856;2023-05-23T12:02:27;95991.22;;;21.88;64.08
42001;BME280;27689;48.390;10.856;2023-05-23T12:05:12;95991.88;;;22.08;64.29
42001;BME280;27689;48.390;10.856;2023-05-23T12:07:58;95991.88;;;22.08;65.64
42001;BME280;27689;48.390;10.856;2023-05-23T12:10:56;95995.47;;;21.96;64.50
42001;BME280;27689;48.390;10.856;2023-05-23T12:13:41;96000.69;;;21.84;62.63
42001;BME280;27689;48.390;10.856;2023-05-23T12:16:27;96005.41;;;21.64;65.10
42001;BME280;27689;48.390;10.856;2023-05-23T12:19:11;96004.72;;;21.68;64.85
42001;BME280;27689;48.390;10.856;2023-05-23T12:22:04;95999.94;;;21.52;65.76
42001;BME280;27689;48.390;10.856;2023-05-23T12:24:53;96011.88;;;21.50;64.81
42001;BME280;27689;48.390;10.856;2023-05-23T12:27:40;96004.84;;;21.30;66.32
42001;BME280;27689;48.390;10.856;2023-05-23T12:30:27;96003.16;;;21.36;66.43
42001;BME280;27689;48.390;10.856;2023-05-23T12:33:12;95999.94;;;21.27;65.69
42001;BME280;27689;48.390;10.856;2023-05-23T12:35:56;96000.41;;;21.18;65.41
42001;BME280;27689;48.390;10.856;2023-05-23T12:38:41;96005.72;;;21.18;67.79
42001;BME280;27689;48.390;10.856;2023-05-23T12:41:28;96012.66;;;21.25;67.13
42001;BME280;27689;48.390;10.856;2023-05-23T12:44:14;96012.63;;;21.32;66.16
42001;BME280;27689;48.390;10.856;2023-05-23T12:47:00;96013.34;;;21.45;65.86
42001;BME280;27689;48.390;10.856;2023-05-23T12:49:53;96021.59;;;21.87;66.11
42001;BME280;27689;48.390;10.856;2023-05-23T12:52:38;96022.13;;;22.21;63.92
42001;BME280;27689;48.390;10.856;2023-05-23T12:55:23;96023.88;;;22.45;64.61
42001;BME280;27689;48.390;10.856;2023-05-23T12:58:08;96017.44;;;22.34;63.54
42001;BME280;27689;48.390;10.856;2023-05-23T13:00:55;96027.16;;;22.10;63.33
42001;BME280;27689;48.390;10.856;2023-05-23T13:03:39;96024.44;;;21.92;63.07
42001;BME280;27689;48.390;10.856;2023-05-23T13:06:23;96023.88;;;21.59;63.52
42001;BME280;27689;48.390;10.856;2023-05-23T13:09:08;96034.22;;;21.49;64.15
42001;BME280;27689;48.390;10.856;2023-05-23T13:11:55;96029.06;;;21.22;66.84
42001;BME280;27689;48.390;10.856;2023-05-23T13:14:40;96033.19;;;21.18;64.61
42001;BME280;27689;48.390;10.856;2023-05-23T13:17:24;96023.44;;;21.05;67.84
42001;BME280;27689;48.390;10.856;2023-05-23T13:20:10;96023.97;;;21.14;67.62
42001;BME280;27689;48.390;10.856;2023-05-23T13:22:57;96023.50;;;21.30;66.51
42001;BME280;27689;48.390;10.856;2023-05-23T13:25:41;96020.00;;;21.30;68.92
42001;BME280;27689;48.390;10.856;2023-05-23T13:28:25;96020.41;;;21.33;65.93
42001;BME280;27689;48.390;10.856;2023-05-23T13:31:09;96025.72;;;21.33;65.54
42001;BME280;27689;48.390;10.856;2023-05-23T13:33:53;96015.28;;;21.32;66.36
42001;BME280;27689;48.390;10.856;2023-05-23T13:36:37;96013.00;;;21.35;65.87
42001;BME280;27689;48.390;10.856;2023-05-23T13:39:21;96006.66;;;21.36;64.40
42001;BME280;27689;48.390;10.856;2023-05-23T13:42:10;96004.41;;;21.58;66.99
42001;BME280;27689;48.390;10.856;2023-05-23T13:44:55;96007.72;;;21.78;66.92
42001;BME280;27689;48.390;10.856;2023-05-23T13:47:39;96008.91;;;21.82;62.89
42001;BME280;27689;48.390;10.856;2023-05-23T13:50:23;96007.13;;;21.76;63.02
42001;BME280;27689;48.390;10.856;2023-05-23T13:53:07;96005.88;;;21.97;61.92
42001;BME280;27689;48.390;10.856;2023-05-23T13:55:57;96018.56;;;22.08;59.76
42001;BME280;27689;48.390;10.856;2023-05-23T13:58:41;96007.78;;;21.72;61.85
42001;BME280;27689;48.390;10.856;2023-05-23T14:01:29;96016.00;;;21.45;62.24
42001;BME280;27689;48.390;10.856;2023-05-23T14:04:13;96016.91;;;21.33;63.30
42001;BME280;27689;48.390;10.856;2023-05-23T14:06:57;96018.38;;;21.29;64.02
42001;BME280;27689;48.390;10.856;2023-05-23T14:09:40;96014.91;;;21.28;64.32
42001;BME280;27689;48.390;10.856;2023-05-23T14:12:25;96016.59;;;21.48;62.80
42001;BME280;27689;48.390;10.856;2023-05-23T14:15:10;96006.66;;;21.61;61.39
42001;BME280;27689;48.390;10.856;2023-05-23T14:17:54;96015.47;;;21.62;61.91
42001;BME280;27689;48.390;10.856;2023-05-23T14:20:39;96007.47;;;21.62;61.42
42001;BME280;27689;48.390;10.856;2023-05-23T14:23:25;96013.25;;;21.52;59.97
42001;BME280;27689;48.390;10.856;2023-05-23T14:26:09;96006.50;;;21.25;60.35
42001;BME280;27689;48.390;10.856;2023-05-23T14:28:53;96012.66;;;21.25;60.90
42001;BME280;27689;48.390;10.856;2023-05-23T14:31:37;96006.88;;;21.35;62.61